Terminal Aerodrome Forecast
Issued by NWS Boise, ID

Home | Current Version | Previous Version | Text Only | Print | Product List | Glossary On
Versions: 1 2 3 4 5 6 7 8 9 10 11 12 13 14 15 16 17 18 19 20 21 22 23 24 25 26 27 28
000
FTUS45 KBOI 301423 AAA
TAFBNO
TAF AMD
KBNO 301423Z 3014/3112 29006KT P6SM SCT120 BKN200
     FM302100 23008KT P6SM VCTS SCT070CB BKN120
     FM310600 VRB05KT P6SM OVC100=

USA.gov is the U.S. government's official web portal to all federal, state and local government web resources and services.